地図

経路データ

SID SEASON NUMBER BASIN SUBBASIN NAME ISO_TIME NATURE LAT LON WMO_WIND WMO_PRES WMO_AGENCY TRACK_TYPE DIST2LAND LANDFALL IFLAG USA_AGENCY USA_ATCF_ID USA_LAT USA_LON USA_RECORD USA_STATUS USA_WIND USA_PRES USA_SSHS USA_R34_NE USA_R34_SE USA_R34_SW USA_R34_NW USA_R50_NE USA_R50_SE USA_R50_SW USA_R50_NW USA_R64_NE USA_R64_SE USA_R64_SW USA_R64_NW USA_POCI USA_ROCI USA_RMW USA_EYE TOKYO_LAT TOKYO_LON TOKYO_GRADE TOKYO_WIND TOKYO_PRES TOKYO_R50_DIR TOKYO_R50_LONG TOKYO_R50_SHORT TOKYO_R30_DIR TOKYO_R30_LONG TOKYO_R30_SHORT TOKYO_LAND CMA_LAT CMA_LON CMA_CAT CMA_WIND CMA_PRES HKO_LAT HKO_LON HKO_CAT HKO_WIND HKO_PRES NEWDELHI_LAT NEWDELHI_LON NEWDELHI_GRADE NEWDELHI_WIND NEWDELHI_PRES NEWDELHI_CI NEWDELHI_DP NEWDELHI_POCI REUNION_LAT REUNION_LON REUNION_TYPE REUNION_WIND REUNION_PRES REUNION_TNUM REUNION_CI REUNION_RMW REUNION_R34_NE REUNION_R34_SE REUNION_R34_SW REUNION_R34_NW REUNION_R50_NE REUNION_R50_SE REUNION_R50_SW REUNION_R50_NW REUNION_R64_NE REUNION_R64_SE REUNION_R64_SW REUNION_R64_NW BOM_LAT BOM_LON BOM_TYPE BOM_WIND BOM_PRES BOM_TNUM BOM_CI BOM_RMW BOM_R34_NE BOM_R34_SE BOM_R34_SW BOM_R34_NW BOM_R50_NE BOM_R50_SE BOM_R50_SW BOM_R50_NW BOM_R64_NE BOM_R64_SE BOM_R64_SW BOM_R64_NW BOM_ROCI BOM_POCI BOM_EYE BOM_POS_METHOD BOM_PRES_METHOD NADI_LAT NADI_LON NADI_CAT NADI_WIND NADI_PRES WELLINGTON_LAT WELLINGTON_LON WELLINGTON_WIND WELLINGTON_PRES DS824_LAT DS824_LON DS824_STAGE DS824_WIND DS824_PRES TD9636_LAT TD9636_LON TD9636_STAGE TD9636_WIND TD9636_PRES TD9635_LAT TD9635_LON TD9635_WIND TD9635_PRES TD9635_ROCI NEUMANN_LAT NEUMANN_LON NEUMANN_CLASS NEUMANN_WIND NEUMANN_PRES MLC_LAT MLC_LON MLC_CLASS MLC_WIND MLC_PRES USA_GUST BOM_GUST BOM_GUST_PER REUNION_GUST REUNION_GUST_PER USA_SEAHGT USA_SEARAD_NE USA_SEARAD_SE USA_SEARAD_SW USA_SEARAD_NW STORM_SPEED STORM_DIR
1970138N12281 1970 43 NA CS ALMA 1970-05-17 18:00:00 TS 11.5000 -79.0000 25 hurdat_atl main 224 224 O_____________ hurdat_atl AL011970 11.5000 -79.0000 TD 25 -1 4 317
1970138N12281 1970 43 NA CS ALMA 1970-05-17 21:00:00 TS 11.6475 -79.1400 main 235 235 P_____________ AL011970 11.6475 -79.1400 TD 25 -1 4 316
1970138N12281 1970 43 NA CS ALMA 1970-05-18 00:00:00 TS 11.8000 -79.3000 25 hurdat_atl main 257 257 O_____________ hurdat_atl AL011970 11.8000 -79.3000 TD 25 -1 5 312
1970138N12281 1970 43 NA CS ALMA 1970-05-18 03:00:00 TS 11.9575 -79.4925 main 280 280 P_____________ AL011970 11.9575 -79.4925 TD 25 -1 5 308
1970138N12281 1970 43 NA CS ALMA 1970-05-18 06:00:00 TS 12.1000 -79.7000 25 hurdat_atl main 291 291 O_____________ hurdat_atl AL011970 12.1000 -79.7000 TD 25 -1 5 301
1970138N12281 1970 43 NA CS ALMA 1970-05-18 09:00:00 TS 12.2000 -79.9000 main 303 303 P_____________ AL011970 12.2000 -79.9000 TD 25 -1 4 297
1970138N12281 1970 43 NA CS ALMA 1970-05-18 12:00:00 TS 12.3000 -80.1000 25 hurdat_atl main 316 316 O_____________ hurdat_atl AL011970 12.3000 -80.1000 TD 25 -1 5 302
1970138N12281 1970 43 NA CS ALMA 1970-05-18 15:00:00 TS 12.4350 -80.2925 main 331 325 P_____________ AL011970 12.4350 -80.2925 TD 25 -1 5 308
1970138N12281 1970 43 NA CS ALMA 1970-05-18 18:00:00 TS 12.6000 -80.5000 25 hurdat_atl main 325 303 O_____________ hurdat_atl AL011970 12.6000 -80.5000 TD 25 -1 6 309
1970138N12281 1970 43 NA CS ALMA 1970-05-18 21:00:00 TS 12.7850 -80.7425 main 303 271 P_____________ AL011970 12.7850 -80.7425 TD 25 -1 6 309
1970138N12281 1970 43 NA CS ALMA 1970-05-19 00:00:00 TS 13.0000 -81.0000 25 hurdat_atl main 271 248 O_____________ hurdat_atl AL011970 13.0000 -81.0000 TD 25 -1 7 312
1970138N12281 1970 43 NA CS ALMA 1970-05-19 03:00:00 TS 13.2425 -81.2575 main 238 204 P_____________ AL011970 13.2425 -81.2575 TD 25 -1 7 316
1970138N12281 1970 43 NA CS ALMA 1970-05-19 06:00:00 TS 13.5000 -81.5000 25 hurdat_atl main 204 175 O_____________ hurdat_atl AL011970 13.5000 -81.5000 TD 25 -1 7 317
1970138N12281 1970 43 NA CS ALMA 1970-05-19 09:00:00 TS 13.7350 -81.7225 main 175 144 P_____________ AL011970 13.7350 -81.7225 TD 25 -1 6 322
1970138N12281 1970 43 NA CS ALMA 1970-05-19 12:00:00 TS 14.0000 -81.9000 25 1005 hurdat_atl main 144 129 O_____________ hurdat_atl AL011970 14.0000 -81.9000 TD 25 1005 -1 7 334
1970138N12281 1970 43 NA CS ALMA 1970-05-19 15:00:00 TS 14.3275 -82.0225 main 129 112 P_____________ AL011970 14.3275 -82.0225 TD 27 -1 7 345
1970138N12281 1970 43 NA CS ALMA 1970-05-19 18:00:00 TS 14.7000 -82.1000 30 hurdat_atl main 112 96 O_____________ hurdat_atl AL011970 14.7000 -82.1000 TD 30 -1 8 349
1970138N12281 1970 43 NA CS ALMA 1970-05-19 21:00:00 TS 15.0925 -82.1799 main 97 97 P_____________ AL011970 15.0925 -82.1799 TD 32 -1 8 353
1970138N12281 1970 43 NA CS ALMA 1970-05-20 00:00:00 TS 15.5000 -82.2000 35 hurdat_atl main 111 111 O_____________ hurdat_atl AL011970 15.5000 -82.2000 TS 35 0 8 3
1970138N12281 1970 43 NA CS ALMA 1970-05-20 03:00:00 TS 15.9150 -82.1301 main 147 147 P_____________ AL011970 15.9150 -82.1301 TS 40 0 8 14
1970138N12281 1970 43 NA CS ALMA 1970-05-20 06:00:00 TS 16.3000 -82.0000 45 hurdat_atl main 187 187 O_____________ hurdat_atl AL011970 16.3000 -82.0000 TS 45 0 8 20
1970138N12281 1970 43 NA CS ALMA 1970-05-20 09:00:00 TS 16.6225 -81.8575 main 216 216 P_____________ AL011970 16.6225 -81.8575 TS 50 0 7 26
1970138N12281 1970 43 NA CS ALMA 1970-05-20 12:00:00 TS 16.9000 -81.7000 55 hurdat_atl main 255 255 O_____________ hurdat_atl AL011970 16.9000 -81.7000 TS 55 0 6 28
1970138N12281 1970 43 NA CS ALMA 1970-05-20 15:00:00 TS 17.1650 -81.5574 main 286 286 P_____________ AL011970 17.1650 -81.5574 TS 60 0 6 30
1970138N12281 1970 43 NA CS ALMA 1970-05-20 18:00:00 TS 17.4000 -81.4000 65 993 hurdat_atl main 317 303 O_____________ hurdat_atl AL011970 17.4000 -81.4000 HU 65 993 1 6 37
1970138N12281 1970 43 NA CS ALMA 1970-05-20 21:00:00 TS 17.6075 -81.2075 main 303 278 P_____________ AL011970 17.6075 -81.2075 HU 62 0 6 44
1970138N12281 1970 43 NA CS ALMA 1970-05-21 00:00:00 TS 17.8000 -81.0000 60 hurdat_atl main 278 254 O_____________ hurdat_atl AL011970 17.8000 -81.0000 TS 60 0 6 44
1970138N12281 1970 43 NA CS ALMA 1970-05-21 03:00:00 TS 18.0075 -80.8000 main 254 232 P_____________ AL011970 18.0075 -80.8000 TS 55 0 6 43
1970138N12281 1970 43 NA CS ALMA 1970-05-21 06:00:00 TS 18.2000 -80.6000 50 hurdat_atl main 232 211 O_____________ hurdat_atl AL011970 18.2000 -80.6000 TS 50 0 5 50
1970138N12281 1970 43 NA CS ALMA 1970-05-21 09:00:00 TS 18.3425 -80.3849 main 211 191 P_____________ AL011970 18.3425 -80.3849 TS 47 0 5 52
1970138N12281 1970 43 NA CS ALMA 1970-05-21 12:00:00 TS 18.5000 -80.2000 45 1002 hurdat_atl main 192 184 O_____________ hurdat_atl AL011970 18.5000 -80.2000 TS 45 1002 0 5 38
1970138N12281 1970 43 NA CS ALMA 1970-05-21 15:00:00 TS 18.7350 -80.0626 main 187 181 P_____________ AL011970 18.7350 -80.0626 TS 45 1002 0 5 21
1970138N12281 1970 43 NA CS ALMA 1970-05-21 18:00:00 TS 19.0000 -80.0000 45 1003 hurdat_atl main 190 190 O_____________ hurdat_atl AL011970 19.0000 -80.0000 TS 45 1003 0 6 6
1970138N12281 1970 43 NA CS ALMA 1970-05-21 21:00:00 TS 19.3024 -79.9974 main 205 205 P_____________ AL011970 19.3024 -79.9974 TS 45 1003 0 5 349
1970138N12281 1970 43 NA CS ALMA 1970-05-22 00:00:00 TS 19.5000 -80.1000 45 1004 hurdat_atl main 225 225 O_____________ hurdat_atl AL011970 19.5000 -80.1000 TS 45 1004 0 3 296
1970138N12281 1970 43 NA CS ALMA 1970-05-22 03:00:00 TS 19.4526 -80.3201 main 243 238 P_____________ AL011970 19.4526 -80.3201 TS 42 1004 0 5 247
1970138N12281 1970 43 NA CS ALMA 1970-05-22 06:00:00 TS 19.3000 -80.6000 40 1005 hurdat_atl main 262 262 O_____________ hurdat_atl AL011970 19.3000 -80.6000 TS 40 1005 0 6 242
1970138N12281 1970 43 NA CS ALMA 1970-05-22 09:00:00 TS 19.1924 -80.8350 main 276 276 P_____________ AL011970 19.1924 -80.8350 TS 37 1006 0 5 247
1970138N12281 1970 43 NA CS ALMA 1970-05-22 12:00:00 TS 19.1000 -81.1000 35 1007 hurdat_atl main 301 301 O_____________ hurdat_atl AL011970 19.1000 -81.1000 TS 35 1007 0 6 253
1970138N12281 1970 43 NA CS ALMA 1970-05-22 15:00:00 TS 19.0200 -81.4276 main 305 287 P_____________ AL011970 19.0200 -81.4276 TS 32 -1 7 261
1970138N12281 1970 43 NA CS ALMA 1970-05-22 18:00:00 TS 19.0000 -81.8000 30 hurdat_atl main 287 275 O_____________ hurdat_atl AL011970 19.0000 -81.8000 TD 30 -1 7 272
1970138N12281 1970 43 NA CS ALMA 1970-05-22 21:00:00 TS 19.0474 -82.1852 main 275 246 P_____________ AL011970 19.0474 -82.1852 TD 30 -1 8 285
1970138N12281 1970 43 NA CS ALMA 1970-05-23 00:00:00 TS 19.2000 -82.6000 30 hurdat_atl main 246 223 O_____________ hurdat_atl AL011970 19.2000 -82.6000 TD 30 -1 9 295
1970138N12281 1970 43 NA CS ALMA 1970-05-23 03:00:00 TS 19.4401 -83.0650 main 225 193 P_____________ AL011970 19.4401 -83.0650 TD 27 -1 10 305
1970138N12281 1970 43 NA CS ALMA 1970-05-23 06:00:00 TS 19.8000 -83.5000 25 hurdat_atl main 193 167 O_____________ hurdat_atl AL011970 19.8000 -83.5000 TD 25 -1 11 319
1970138N12281 1970 43 NA CS ALMA 1970-05-23 09:00:00 TS 20.2699 -83.8449 main 157 119 P_____________ AL011970 20.2699 -83.8449 TD 25 -1 12 331
1970138N12281 1970 43 NA CS ALMA 1970-05-23 12:00:00 TS 20.8000 -84.1000 25 hurdat_atl main 119 59 O_____________ hurdat_atl AL011970 20.8000 -84.1000 TD 25 -1 11 338
1970138N12281 1970 43 NA CS ALMA 1970-05-23 15:00:00 TS 21.2924 -84.2877 main 59 10 P_____________ AL011970 21.2924 -84.2877 TD 25 -1 10 344
1970138N12281 1970 43 NA CS ALMA 1970-05-23 18:00:00 TS 21.8000 -84.4000 25 hurdat_atl main 10 0 O_____________ hurdat_atl AL011970 21.8000 -84.4000 TD 25 -1 11 350
1970138N12281 1970 43 NA GM ALMA 1970-05-23 21:00:00 TS 22.3500 -84.4874 main 10 10 P_____________ AL011970 22.3500 -84.4874 TD 25 -1 11 355
1970138N12281 1970 43 NA GM ALMA 1970-05-24 00:00:00 TS 22.9000 -84.5000 25 hurdat_atl main 52 52 O_____________ hurdat_atl AL011970 22.9000 -84.5000 TD 25 -1 11 3
1970138N12281 1970 43 NA GM ALMA 1970-05-24 03:00:00 TS 23.4075 -84.4227 main 88 88 P_____________ AL011970 23.4075 -84.4227 TD 27 -1 10 11
1970138N12281 1970 43 NA GM ALMA 1970-05-24 06:00:00 TS 23.9000 -84.3000 30 1008 hurdat_atl main 137 137 O_____________ hurdat_atl AL011970 23.9000 -84.3000 TD 30 1008 -1 10 12
1970138N12281 1970 43 NA GM ALMA 1970-05-24 09:00:00 TS 24.3700 -84.1998 main 185 185 P_____________ AL011970 24.3700 -84.1998 TD 30 1008 -1 10 10
1970138N12281 1970 43 NA GM ALMA 1970-05-24 12:00:00 TS 24.9000 -84.1000 30 1008 hurdat_atl main 234 223 O_____________ hurdat_atl AL011970 24.9000 -84.1000 TD 30 1008 -1 12 8
1970138N12281 1970 43 NA GM ALMA 1970-05-24 15:00:00 TS 25.5475 -84.0219 main 223 168 P_____________ AL011970 25.5475 -84.0219 TD 30 -1 14 7
1970138N12281 1970 43 NA GM ALMA 1970-05-24 18:00:00 TS 26.3000 -83.9000 30 hurdat_atl main 168 110 O_____________ hurdat_atl AL011970 26.3000 -83.9000 TD 30 -1 16 11
1970138N12281 1970 43 NA GM ALMA 1970-05-24 21:00:00 TS 27.1426 -83.6728 main 110 49 P_____________ AL011970 27.1426 -83.6728 TD 30 -1 18 15
1970138N12281 1970 43 NA GM ALMA 1970-05-25 00:00:00 TS 28.0000 -83.4000 30 hurdat_atl main 50 50 O_____________ hurdat_atl AL011970 28.0000 -83.4000 TD 30 -1 17 15
1970138N12281 1970 43 NA GM ALMA 1970-05-25 03:00:00 TS 28.7798 -83.1644 main 44 0 P_____________ AL011970 28.7798 -83.1644 TD 30 -1 16 16
1970138N12281 1970 43 NA NA ALMA 1970-05-25 06:00:00 TS 29.5000 -82.9000 30 hurdat_atl main 0 0 O_____________ hurdat_atl AL011970 29.5000 -82.9000 TD 30 -1 15 21
1970138N12281 1970 43 NA NA ALMA 1970-05-25 09:00:00 TS 30.1875 -82.5576 main 0 0 P_____________ AL011970 30.1875 -82.5576 TD 30 -1 14 25
1970138N12281 1970 43 NA NA ALMA 1970-05-25 12:00:00 TS 30.8000 -82.2000 30 hurdat_atl main 0 0 O_____________ hurdat_atl AL011970 30.8000 -82.2000 TD 30 -1 13 27
1970138N12281 1970 43 NA NA ALMA 1970-05-25 15:00:00 TS 31.3374 -81.8772 main 0 0 P_____________ AL011970 31.3374 -81.8772 TD 32 -1 11 27
1970138N12281 1970 43 NA NA ALMA 1970-05-25 18:00:00 TS 31.8000 -81.6000 35 1003 hurdat_atl main 0 0 O_____________ hurdat_atl AL011970 31.8000 -81.6000 TS 35 1003 0 10 25
1970138N12281 1970 43 NA NA ALMA 1970-05-25 21:00:00 TS 32.2073 -81.3918 main 0 0 P_____________ AL011970 32.2073 -81.3918 TS 37 0 9 23
1970138N12281 1970 43 NA NA ALMA 1970-05-26 00:00:00 TS 32.6000 -81.2000 40 hurdat_atl main 0 0 O_____________ hurdat_atl AL011970 32.6000 -81.2000 TS 40 0 9 23
1970138N12281 1970 43 NA NA ALMA 1970-05-26 03:00:00 TS 33.0273 -80.9794 main 0 0 P_____________ AL011970 33.0273 -80.9794 TS 40 0 10 25
1970138N12281 1970 43 NA NA ALMA 1970-05-26 06:00:00 TS 33.5000 -80.7000 40 hurdat_atl main 0 0 O_____________ hurdat_atl AL011970 33.5000 -80.7000 TS 40 0 11 27
1970138N12281 1970 43 NA NA ALMA 1970-05-26 09:00:00 TS 34.0347 -80.3519 main 0 0 P_____________ AL011970 34.0347 -80.3519 TS 40 0 13 31
1970138N12281 1970 43 NA NA ALMA 1970-05-26 12:00:00 TS 34.6000 -79.9000 40 hurdat_atl main 0 0 O_____________ hurdat_atl AL011970 34.6000 -79.9000 TS 40 0 14 35
1970138N12281 1970 43 NA NA ALMA 1970-05-26 15:00:00 TS 35.1720 -79.3671 main 0 0 P_____________ AL011970 35.1720 -79.3671 TS 37 0 15 42
1970138N12281 1970 43 NA NA ALMA 1970-05-26 18:00:00 TS 35.7000 -78.7000 35 hurdat_atl main 0 0 O_____________ hurdat_atl AL011970 35.7000 -78.7000 TS 35 0 15 51
1970138N12281 1970 43 NA NA ALMA 1970-05-26 21:00:00 TS 36.1316 -77.8914 main 0 0 P_____________ AL011970 36.1316 -77.8914 TS 35 0 16 60
1970138N12281 1970 43 NA NA ALMA 1970-05-27 00:00:00 TS 36.5000 -77.0000 35 1003 hurdat_atl main 0 O_____________ hurdat_atl AL011970 36.5000 -77.0000 TS 35 1003 0 16 63

IBTrACS Databaseについて

本データベースは、米国NOAAが公開する1842年以降の世界の熱帯低気圧のベストトラックデータアーカイブInternational Best Track Archive for Climate Stewardship (IBTrACS)を、ウェブで閲覧しやすい形式に変換したものです。

最終更新日:2022-09-30